Time,TemperatureF,DewpointF,PressureIn,WindDirection,WindDirectionDegrees,WindSpeedMPH,WindSpeedGustMPH,Humidity,HourlyPrecipIn,Conditions,Clouds,dailyrainin,SoftwareType,DateUTC
2013-01-07 00:00:00,33.7,32.7,30.17,ESE,113,0.0,0.0,96,0.00,RA,,0.00,WeatherDisplay:10.37,2013-01-07 05:00:00,
2013-01-07 00:01:00,33.6,32.6,30.17,ESE,113,0.0,0.0,96,0.00,RA,,0.00,WeatherDisplay:10.37,2013-01-07 05:01:00,
2013-01-07 00:06:00,33.7,32.7,30.17,ESE,113,0.0,0.0,96,0.00,RA,,0.00,WeatherDisplay:10.37,2013-01-07 05:06:00,
2013-01-07 00:11:00,33.6,32.6,30.18,ESE,113,0.0,0.0,96,0.00,CLR,,0.00,WeatherDisplay:10.37,2013-01-07 05:11:00,
2013-01-07 00:16:00,33.6,32.6,30.17,ESE,113,0.0,0.0,96,0.00,CLR,,0.00,WeatherDisplay:10.37,2013-01-07 05:16:00,
2013-01-07 00:21:00,33.5,32.5,30.17,ESE,113,0.0,0.0,96,0.00,CLR,,0.00,WeatherDisplay:10.37,2013-01-07 05:21:00,
2013-01-07 00:26:00,33.4,32.6,30.17,ESE,113,0.0,0.0,97,0.00,CLR,,0.00,WeatherDisplay:10.37,2013-01-07 05:26:00,
2013-01-07 00:31:00,33.4,32.6,30.17,ESE,113,0.0,0.0,97,0.00,CLR,,0.00,WeatherDisplay:10.37,2013-01-07 05:31:00,
2013-01-07 00:36:00,33.3,32.5,30.18,ESE,113,0.0,0.0,97,0.00,CLR,,0.00,WeatherDisplay:10.37,2013-01-07 05:36:00,
2013-01-07 00:41:00,33.3,32.5,30.18,ESE,113,0.0,0.0,97,0.00,CLR,,0.00,WeatherDisplay:10.37,2013-01-07 05:41:00,
2013-01-07 00:46:00,33.2,32.4,30.18,ESE,113,0.0,0.0,97,0.00,CLR,,0.00,WeatherDisplay:10.37,2013-01-07 05:46:00,
2013-01-07 00:51:00,33.1,32.3,30.18,ESE,113,0.0,0.0,97,0.00,CLR,,0.00,WeatherDisplay:10.37,2013-01-07 05:51:00,
2013-01-07 00:57:00,33.0,32.2,30.18,ESE,113,0.0,0.0,97,0.00,CLR,,0.00,WeatherDisplay:10.37,2013-01-07 05:57:00,
2013-01-07 01:02:00,32.8,32.0,30.18,ESE,113,0.0,0.0,97,0.00,CLR,,0.00,WeatherDisplay:10.37,2013-01-07 06:02:00,
2013-01-07 01:07:00,32.5,31.7,30.18,ESE,113,0.0,0.0,97,0.00,CLR,,0.00,WeatherDisplay:10.37,2013-01-07 06:07:00,
2013-01-07 01:12:00,32.2,31.4,30.18,ESE,113,0.0,0.0,97,0.00,CLR,,0.00,WeatherDisplay:10.37,2013-01-07 06:12:00,
2013-01-07 01:17:00,31.9,31.1,30.18,ESE,113,0.0,0.0,97,0.00,CLR,,0.00,WeatherDisplay:10.37,2013-01-07 06:17:00,
2013-01-07 01:22:00,31.7,30.9,30.19,ESE,113,0.0,0.0,97,0.00,CLR,,0.00,WeatherDisplay:10.37,2013-01-07 06:22:00,
2013-01-07 01:27:00,31.7,30.9,30.19,ESE,113,0.0,0.0,97,0.00,CLR,,0.00,WeatherDisplay:10.37,2013-01-07 06:27:00,
2013-01-07 01:32:00,31.6,30.8,30.19,ESE,113,0.0,0.0,97,0.00,CLR,,0.00,WeatherDisplay:10.37,2013-01-07 06:32:00,
2013-01-07 01:37:00,31.3,30.5,30.19,ESE,113,0.0,0.0,97,0.00,CLR,,0.00,WeatherDisplay:10.37,2013-01-07 06:37:00,
2013-01-07 01:42:00,31.2,30.4,30.19,ESE,113,0.0,0.0,97,0.00,CLR,,0.00,WeatherDisplay:10.37,2013-01-07 06:42:00,
2013-01-07 01:47:00,30.9,30.1,30.19,ESE,113,0.0,0.0,97,0.00,CLR,,0.00,WeatherDisplay:10.37,2013-01-07 06:47:00,
2013-01-07 01:52:00,30.6,29.9,30.20,ESE,113,0.0,0.0,97,0.00,CLR,,0.00,WeatherDisplay:10.37,2013-01-07 06:52:00,
2013-01-07 01:57:00,30.8,30.0,30.20,ESE,113,0.0,0.0,97,0.00,CLR,,0.00,WeatherDisplay:10.37,2013-01-07 06:57:00,
2013-01-07 02:02:00,30.8,30.0,30.20,ESE,113,0.0,0.0,97,0.00,CLR,,0.00,WeatherDisplay:10.37,2013-01-07 07:02:00,
2013-01-07 02:07:00,30.9,30.1,30.20,ESE,113,0.0,0.0,97,0.00,CLR,,0.00,WeatherDisplay:10.37,2013-01-07 07:07:00,
2013-01-07 02:12:00,30.9,30.1,30.20,ESE,113,0.0,0.0,97,0.00,CLR,,0.00,WeatherDisplay:10.37,2013-01-07 07:12:00,
2013-01-07 02:17:00,30.6,29.9,30.20,ESE,113,0.0,0.0,97,0.00,CLR,,0.00,WeatherDisplay:10.37,2013-01-07 07:17:00,
2013-01-07 02:22:00,30.5,29.8,30.20,ESE,113,0.0,0.0,97,0.00,CLR,,0.00,WeatherDisplay:10.37,2013-01-07 07:22:00,
2013-01-07 02:27:00,30.3,29.6,30.20,ESE,113,0.0,0.0,97,0.00,CLR,,0.00,WeatherDisplay:10.37,2013-01-07 07:27:00,
2013-01-07 02:32:00,30.0,29.3,30.20,ESE,113,0.0,0.0,97,0.00,CLR,,0.00,WeatherDisplay:10.37,2013-01-07 07:32:00,
2013-01-07 02:37:00,29.7,29.0,30.21,ESE,113,0.0,0.0,97,0.00,CLR,,0.00,WeatherDisplay:10.37,2013-01-07 07:37:00,
2013-01-07 02:42:00,29.7,29.0,30.21,ESE,113,0.0,0.0,97,0.00,CLR,,0.00,WeatherDisplay:10.37,2013-01-07 07:42:00,
2013-01-07 02:47:00,29.7,29.0,30.21,ESE,113,0.0,0.0,97,0.00,CLR,,0.00,WeatherDisplay:10.37,2013-01-07 07:47:00,
2013-01-07 02:52:00,29.7,29.0,30.21,ESE,113,0.0,0.0,97,0.00,CLR,,0.00,WeatherDisplay:10.37,2013-01-07 07:52:00,
2013-01-07 02:57:00,29.6,28.9,30.21,ESE,113,0.0,0.0,97,0.00,CLR,,0.00,WeatherDisplay:10.37,2013-01-07 07:57:00,
2013-01-07 03:02:00,29.5,28.8,30.21,ESE,113,0.0,0.0,97,0.00,CLR,,0.00,WeatherDisplay:10.37,2013-01-07 08:02:00,
2013-01-07 03:07:00,29.4,28.7,30.21,ESE,113,0.0,0.0,97,0.00,CLR,,0.00,WeatherDisplay:10.37,2013-01-07 08:07:00,
2013-01-07 03:12:00,29.4,28.7,30.21,ESE,113,0.0,0.0,97,0.00,CLR,,0.00,WeatherDisplay:10.37,2013-01-07 08:12:00,
2013-01-07 03:17:00,29.3,28.6,30.21,ESE,113,0.0,0.0,97,0.00,CLR,,0.00,WeatherDisplay:10.37,2013-01-07 08:17:00,
2013-01-07 03:22:00,29.2,28.5,30.21,ESE,113,0.0,0.0,97,0.00,CLR,,0.00,WeatherDisplay:10.37,2013-01-07 08:22:00,
2013-01-07 03:27:00,29.1,28.4,30.21,ESE,113,0.0,0.0,97,0.00,CLR,,0.00,WeatherDisplay:10.37,2013-01-07 08:27:00,
2013-01-07 03:32:00,28.8,28.1,30.21,ESE,113,0.0,0.0,97,0.00,CLR,,0.00,WeatherDisplay:10.37,2013-01-07 08:32:00,
2013-01-07 03:37:00,28.6,27.9,30.21,ESE,113,0.0,0.0,97,0.00,CLR,,0.00,WeatherDisplay:10.37,2013-01-07 08:37:00,
2013-01-07 03:42:00,28.7,28.0,30.21,ESE,113,0.0,0.0,97,0.00,CLR,,0.00,WeatherDisplay:10.37,2013-01-07 08:42:00,
2013-01-07 03:47:00,28.7,28.0,30.21,ESE,113,0.0,0.0,97,0.00,CLR,,0.00,WeatherDisplay:10.37,2013-01-07 08:47:00,
2013-01-07 03:52:00,28.6,27.9,30.22,ESE,113,0.0,0.0,97,0.00,CLR,,0.00,WeatherDisplay:10.37,2013-01-07 08:52:00,
2013-01-07 03:57:00,28.4,27.7,30.22,ESE,113,0.0,0.0,97,0.00,CLR,,0.00,WeatherDisplay:10.37,2013-01-07 08:57:00,
2013-01-07 04:02:00,28.5,27.8,30.22,ESE,113,0.0,0.0,97,0.00,CLR,,0.00,WeatherDisplay:10.37,2013-01-07 09:02:00,
2013-01-07 04:07:00,28.5,27.8,30.23,ESE,113,0.0,0.0,97,0.00,CLR,,0.00,WeatherDisplay:10.37,2013-01-07 09:07:00,
2013-01-07 04:12:00,28.5,27.8,30.22,ESE,113,0.0,0.0,97,0.00,CLR,,0.00,WeatherDisplay:10.37,2013-01-07 09:12:00,
2013-01-07 04:17:00,28.3,27.6,30.22,ESE,113,0.0,0.0,97,0.00,CLR,,0.00,WeatherDisplay:10.37,2013-01-07 09:17:00,
2013-01-07 04:22:00,28.2,27.5,30.22,ESE,113,0.0,0.0,97,0.00,CLR,,0.00,WeatherDisplay:10.37,2013-01-07 09:22:00,
2013-01-07 04:27:00,28.2,27.5,30.23,ESE,113,0.0,0.0,97,0.00,CLR,,0.00,WeatherDisplay:10.37,2013-01-07 09:27:00,
2013-01-07 04:32:00,28.2,27.5,30.23,ESE,113,0.0,0.0,97,0.00,CLR,,0.00,WeatherDisplay:10.37,2013-01-07 09:32:00,
2013-01-07 04:37:00,27.9,27.2,30.23,ESE,113,0.0,0.0,97,0.00,CLR,,0.00,WeatherDisplay:10.37,2013-01-07 09:37:00,
2013-01-07 04:42:00,27.6,26.9,30.23,ESE,113,0.0,0.0,97,0.00,CLR,,0.00,WeatherDisplay:10.37,2013-01-07 09:42:00,
2013-01-07 04:47:00,27.3,26.6,30.23,ESE,113,0.0,0.0,97,0.00,CLR,,0.00,WeatherDisplay:10.37,2013-01-07 09:47:00,
2013-01-07 04:52:00,27.8,27.1,30.23,ESE,113,0.0,0.0,97,0.00,CLR,,0.00,WeatherDisplay:10.37,2013-01-07 09:52:00,
2013-01-07 04:57:00,28.0,27.3,30.24,ESE,113,0.0,0.0,97,0.00,CLR,,0.00,WeatherDisplay:10.37,2013-01-07 09:57:00,
2013-01-07 05:02:00,27.9,27.2,30.24,ESE,113,0.0,0.0,97,0.00,CLR,,0.00,WeatherDisplay:10.37,2013-01-07 10:02:00,
2013-01-07 05:07:00,27.9,27.2,30.24,ESE,113,0.0,0.0,97,0.00,CLR,,0.00,WeatherDisplay:10.37,2013-01-07 10:07:00,
2013-01-07 05:12:00,27.9,27.2,30.24,ESE,113,0.0,0.0,97,0.00,CLR,,0.00,WeatherDisplay:10.37,2013-01-07 10:12:00,
2013-01-07 05:17:00,27.9,27.2,30.24,ESE,113,0.0,0.0,97,0.00,CLR,,0.00,WeatherDisplay:10.37,2013-01-07 10:17:00,
2013-01-07 05:22:00,27.8,27.1,30.25,ESE,113,0.0,0.0,97,0.00,CLR,,0.00,WeatherDisplay:10.37,2013-01-07 10:22:00,
2013-01-07 05:27:00,27.4,26.7,30.25,ESE,113,0.0,0.0,97,0.00,CLR,,0.00,WeatherDisplay:10.37,2013-01-07 10:27:00,
2013-01-07 05:32:00,27.2,26.5,30.25,ESE,113,0.0,0.0,97,0.00,CLR,,0.00,WeatherDisplay:10.37,2013-01-07 10:32:00,
2013-01-07 05:37:00,27.3,26.6,30.26,ESE,113,0.0,0.0,97,0.00,CLR,,0.00,WeatherDisplay:10.37,2013-01-07 10:37:00,
2013-01-07 05:42:00,27.5,26.8,30.26,ESE,113,0.0,0.0,97,0.00,CLR,,0.00,WeatherDisplay:10.37,2013-01-07 10:42:00,
2013-01-07 05:47:00,27.4,26.7,30.26,ESE,113,0.0,0.0,97,0.00,CLR,,0.00,WeatherDisplay:10.37,2013-01-07 10:47:00,
2013-01-07 05:52:00,27.4,26.7,30.26,ESE,113,0.0,0.0,97,0.00,CLR,,0.00,WeatherDisplay:10.37,2013-01-07 10:52:00,
2013-01-07 05:57:00,27.4,26.7,30.27,ESE,113,0.0,0.0,97,0.00,CLR,,0.00,WeatherDisplay:10.37,2013-01-07 10:57:00,
2013-01-07 06:03:00,27.3,26.6,30.27,ESE,113,0.0,0.0,97,0.00,CLR,,0.00,WeatherDisplay:10.37,2013-01-07 11:03:00,
2013-01-07 06:08:00,27.1,26.4,30.27,ESE,113,0.0,0.0,97,0.00,CLR,,0.00,WeatherDisplay:10.37,2013-01-07 11:08:00,
2013-01-07 06:13:00,27.2,26.5,30.27,ESE,113,0.0,0.0,97,0.00,CLR,,0.00,WeatherDisplay:10.37,2013-01-07 11:13:00,
2013-01-07 06:18:00,27.4,26.9,30.28,ESE,113,0.0,0.0,98,0.00,CLR,,0.00,WeatherDisplay:10.37,2013-01-07 11:18:00,
2013-01-07 06:23:00,27.6,26.9,30.28,ESE,113,0.0,0.0,97,0.00,CLR,,0.00,WeatherDisplay:10.37,2013-01-07 11:23:00,
2013-01-07 06:28:00,27.7,27.2,30.28,ESE,113,0.0,0.0,98,0.00,CLR,,0.00,WeatherDisplay:10.37,2013-01-07 11:28:00,
2013-01-07 06:33:00,27.8,27.3,30.29,ESE,113,0.0,0.0,98,0.00,CLR,,0.00,WeatherDisplay:10.37,2013-01-07 11:33:00,
2013-01-07 06:38:00,27.7,27.2,30.29,ESE,113,0.0,0.0,98,0.00,CLR,,0.00,WeatherDisplay:10.37,2013-01-07 11:38:00,
2013-01-07 06:43:00,27.5,26.8,30.30,ESE,113,0.0,0.0,97,0.00,CLR,,0.00,WeatherDisplay:10.37,2013-01-07 11:43:00,
2013-01-07 06:48:00,27.4,26.7,30.30,ESE,113,0.0,0.0,97,0.00,CLR,,0.00,WeatherDisplay:10.37,2013-01-07 11:48:00,
2013-01-07 06:53:00,27.3,26.6,30.30,ESE,113,0.0,0.0,97,0.00,CLR,,0.00,WeatherDisplay:10.37,2013-01-07 11:53:00,
2013-01-07 06:58:00,27.2,26.5,30.30,ESE,113,0.0,0.0,97,0.00,CLR,,0.00,WeatherDisplay:10.37,2013-01-07 11:58:00,
2013-01-07 07:03:00,27.0,26.3,30.31,ESE,113,0.0,0.0,97,0.00,CLR,,0.00,WeatherDisplay:10.37,2013-01-07 12:03:00,
2013-01-07 07:08:00,26.9,26.2,30.32,ESE,113,0.0,0.0,97,0.00,CLR,,0.00,WeatherDisplay:10.37,2013-01-07 12:08:00,
2013-01-07 07:13:00,26.8,26.1,30.32,ESE,113,0.0,0.0,97,0.00,CLR,,0.00,WeatherDisplay:10.37,2013-01-07 12:13:00,
2013-01-07 07:18:00,26.8,26.1,30.32,ESE,113,0.0,0.0,97,0.00,CLR,,0.00,WeatherDisplay:10.37,2013-01-07 12:18:00,
2013-01-07 07:23:00,27.1,26.4,30.33,ESE,113,0.0,0.0,97,0.00,CLR,,0.00,WeatherDisplay:10.37,2013-01-07 12:23:00,
2013-01-07 07:28:00,27.1,26.4,30.33,ESE,113,0.0,0.0,97,0.00,CLR,,0.00,WeatherDisplay:10.37,2013-01-07 12:28:00,
2013-01-07 07:33:00,27.1,26.4,30.33,ESE,113,0.0,0.0,97,0.00,CLR,,0.00,WeatherDisplay:10.37,2013-01-07 12:33:00,
2013-01-07 07:38:00,27.1,26.4,30.33,ESE,113,0.0,0.0,97,0.00,CLR,,0.00,WeatherDisplay:10.37,2013-01-07 12:38:00,
2013-01-07 07:43:00,27.2,26.5,30.34,ESE,113,0.0,0.0,97,0.00,CLR,,0.00,WeatherDisplay:10.37,2013-01-07 12:43:00,
2013-01-07 07:48:00,27.2,26.5,30.34,ESE,113,0.0,0.0,97,0.00,CLR,,0.00,WeatherDisplay:10.37,2013-01-07 12:48:00,
2013-01-07 07:53:00,27.2,26.5,30.35,ESE,113,0.0,0.0,97,0.00,CLR,,0.00,WeatherDisplay:10.37,2013-01-07 12:53:00,
2013-01-07 07:58:00,27.3,26.6,30.35,ESE,113,0.0,0.0,97,0.00,CLR,,0.00,WeatherDisplay:10.37,2013-01-07 12:58:00,
2013-01-07 08:03:00,27.5,26.8,30.35,ESE,113,0.0,0.0,97,0.00,CLR,,0.00,WeatherDisplay:10.37,2013-01-07 13:03:00,
2013-01-07 08:08:00,27.7,27.2,30.36,ESE,113,0.0,0.0,98,0.00,CLR,,0.00,WeatherDisplay:10.37,2013-01-07 13:08:00,
2013-01-07 08:13:00,28.1,27.6,30.36,ESE,113,0.0,0.0,98,0.00,CLR,,0.00,WeatherDisplay:10.37,2013-01-07 13:13:00,
2013-01-07 08:18:00,28.4,27.9,30.36,ESE,113,0.0,0.0,98,0.00,CLR,,0.00,WeatherDisplay:10.37,2013-01-07 13:18:00,
2013-01-07 08:23:00,28.9,28.4,30.36,ESE,113,0.0,0.0,98,0.00,CLR,,0.00,WeatherDisplay:10.37,2013-01-07 13:23:00,
2013-01-07 08:28:00,30.1,29.6,30.37,ESE,113,0.0,0.0,98,0.00,CLR,,0.00,WeatherDisplay:10.37,2013-01-07 13:28:00,
2013-01-07 08:33:00,31.2,30.7,30.37,ESE,113,0.0,0.0,98,0.00,CLR,,0.00,WeatherDisplay:10.37,2013-01-07 13:33:00,
2013-01-07 08:38:00,32.2,31.7,30.37,ESE,113,0.0,0.0,98,0.00,CLR,,0.00,WeatherDisplay:10.37,2013-01-07 13:38:00,
2013-01-07 08:43:00,33.0,32.5,30.37,ESE,113,0.0,0.0,98,0.00,CLR,,0.00,WeatherDisplay:10.37,2013-01-07 13:43:00,
2013-01-07 08:48:00,33.6,33.1,30.38,ESE,113,0.0,0.0,98,0.00,CLR,,0.00,WeatherDisplay:10.37,2013-01-07 13:48:00,
2013-01-07 08:53:00,34.2,33.7,30.38,NNE,32,0.0,0.0,98,0.00,CLR,,0.00,WeatherDisplay:10.37,2013-01-07 13:53:00,
2013-01-07 08:58:00,35.0,34.5,30.38,NNE,32,0.0,0.0,98,0.00,CLR,,0.00,WeatherDisplay:10.37,2013-01-07 13:58:00,
2013-01-07 09:03:00,35.6,35.1,30.39,North,4,3.0,3.0,98,0.00,CLR,,0.00,WeatherDisplay:10.37,2013-01-07 14:03:00,
2013-01-07 09:08:00,36.0,35.5,30.38,ESE,115,2.3,2.3,98,0.00,CLR,,0.00,WeatherDisplay:10.37,2013-01-07 14:08:00,
2013-01-07 09:13:00,36.5,36.0,30.39,NNW,333,3.5,3.5,98,0.00,CLR,,0.00,WeatherDisplay:10.37,2013-01-07 14:13:00,
2013-01-07 09:18:00,37.0,36.5,30.39,WSW,251,2.3,2.3,98,0.00,CLR,,0.00,WeatherDisplay:10.37,2013-01-07 14:18:00,
2013-01-07 09:23:00,37.5,37.0,30.39,SSE,156,1.1,1.1,98,0.00,CLR,,0.00,WeatherDisplay:10.37,2013-01-07 14:23:00,
2013-01-07 09:28:00,38.0,37.2,30.39,SSW,207,4.6,4.6,97,0.00,CLR,,0.00,WeatherDisplay:10.37,2013-01-07 14:28:00,
2013-01-07 09:33:00,38.7,36.6,30.40,NNE,13,4.0,4.0,92,0.00,CLR,,0.00,WeatherDisplay:10.37,2013-01-07 14:33:00,
2013-01-07 09:38:00,39.1,36.1,30.40,SW,214,3.5,3.5,89,0.00,CLR,,0.00,WeatherDisplay:10.37,2013-01-07 14:38:00,
2013-01-07 09:43:00,39.7,36.1,30.41,North,355,5.8,5.8,87,0.00,CLR,,0.00,WeatherDisplay:10.37,2013-01-07 14:43:00,
2013-01-07 09:48:00,40.1,36.0,30.40,South,181,3.5,3.5,85,0.00,CLR,,0.00,WeatherDisplay:10.37,2013-01-07 14:48:00,
2013-01-07 09:53:00,40.6,36.7,30.41,East,100,1.1,1.1,86,0.00,CLR,,0.00,WeatherDisplay:10.37,2013-01-07 14:53:00,
2013-01-07 09:58:00,40.9,36.4,30.40,South,170,2.3,2.3,84,0.00,CLR,,0.00,WeatherDisplay:10.37,2013-01-07 14:58:00,
2013-01-07 10:03:00,41.3,36.8,30.41,NNE,27,3.5,3.5,84,0.00,CLR,,0.00,WeatherDisplay:10.37,2013-01-07 15:03:00,
2013-01-07 10:08:00,41.8,37.0,30.41,SE,130,5.0,5.0,83,0.00,CLR,,0.00,WeatherDisplay:10.37,2013-01-07 15:08:00,
2013-01-07 10:13:00,42.2,36.8,30.41,NNE,32,5.8,5.8,81,0.00,CLR,,0.00,WeatherDisplay:10.37,2013-01-07 15:13:00,
2013-01-07 10:18:00,42.7,36.6,30.41,NNE,13,3.5,3.5,79,0.00,CLR,,0.00,WeatherDisplay:10.37,2013-01-07 15:18:00,
2013-01-07 10:23:00,43.3,37.2,30.41,NNW,333,11.5,11.5,79,0.00,CLR,,0.00,WeatherDisplay:10.37,2013-01-07 15:23:00,
2013-01-07 10:29:00,43.6,35.9,30.41,ENE,70,3.5,3.5,74,0.00,CLR,,0.00,WeatherDisplay:10.37,2013-01-07 15:29:00,
2013-01-07 10:34:00,43.9,36.8,30.41,East,96,3.0,3.0,76,0.00,CLR,,0.00,WeatherDisplay:10.37,2013-01-07 15:34:00,
2013-01-07 10:39:00,44.2,36.4,30.42,SSE,158,3.5,3.5,74,0.00,CLR,,0.00,WeatherDisplay:10.37,2013-01-07 15:39:00,
2013-01-07 10:44:00,44.4,36.6,30.42,North,353,8.0,8.0,74,0.00,CLR,,0.00,WeatherDisplay:10.37,2013-01-07 15:44:00,
2013-01-07 10:49:00,44.8,36.7,30.42,ENE,75,3.5,3.5,73,0.00,CLR,,0.00,WeatherDisplay:10.37,2013-01-07 15:49:00,
2013-01-07 10:54:00,45.1,36.6,30.41,ESE,120,5.8,5.8,72,0.00,CLR,,0.00,WeatherDisplay:10.37,2013-01-07 15:54:00,
2013-01-07 10:59:00,45.5,36.6,30.41,East,89,4.6,4.6,71,0.00,CLR,,0.00,WeatherDisplay:10.37,2013-01-07 15:59:00,
2013-01-07 11:04:00,45.9,35.6,30.41,NNE,25,5.8,5.8,67,0.00,CLR,,0.00,WeatherDisplay:10.37,2013-01-07 16:04:00,
2013-01-07 11:09:00,46.0,35.7,30.41,NNE,22,4.6,4.6,67,0.00,CLR,,0.00,WeatherDisplay:10.37,2013-01-07 16:09:00,
2013-01-07 11:14:00,46.1,35.4,30.41,SE,133,3.5,3.5,66,0.00,CLR,,0.00,WeatherDisplay:10.37,2013-01-07 16:14:00,
2013-01-07 11:19:00,46.7,35.6,30.41,ESE,107,4.6,4.6,65,0.00,CLR,,0.00,WeatherDisplay:10.37,2013-01-07 16:19:00,
2013-01-07 11:24:00,47.1,34.7,30.41,NNW,331,11.5,11.5,62,0.00,CLR,,0.00,WeatherDisplay:10.37,2013-01-07 16:24:00,
2013-01-07 11:29:00,47.2,34.8,30.41,North,359,7.0,7.0,62,0.00,CLR,,0.00,WeatherDisplay:10.37,2013-01-07 16:29:00,
2013-01-07 11:34:00,47.4,35.0,30.41,ESE,116,7.0,7.0,62,0.00,CLR,,0.00,WeatherDisplay:10.37,2013-01-07 16:34:00,
2013-01-07 11:39:00,47.6,35.2,30.40,ENE,60,3.5,3.5,62,0.00,CLR,,0.00,WeatherDisplay:10.37,2013-01-07 16:39:00,
2013-01-07 11:44:00,47.8,35.4,30.40,North,5,4.0,4.0,62,0.00,CLR,,0.00,WeatherDisplay:10.37,2013-01-07 16:44:00,
2013-01-07 11:49:00,47.9,34.7,30.40,WNW,296,6.9,6.9,60,0.00,CLR,,0.00,WeatherDisplay:10.37,2013-01-07 16:49:00,
2013-01-07 11:54:00,48.1,35.7,30.40,ESE,119,2.3,2.3,62,0.00,CLR,,0.00,WeatherDisplay:10.37,2013-01-07 16:54:00,
2013-01-07 11:59:00,48.2,34.5,30.40,NNE,12,5.8,5.8,59,0.00,CLR,,0.00,WeatherDisplay:10.37,2013-01-07 16:59:00,
2013-01-07 12:04:00,48.3,35.0,30.39,SE,129,4.6,4.6,60,0.00,CLR,,0.00,WeatherDisplay:10.37,2013-01-07 17:04:00,
2013-01-07 12:09:00,48.8,35.1,30.39,SE,135,5.8,5.8,59,0.00,CLR,,0.00,WeatherDisplay:10.37,2013-01-07 17:09:00,
2013-01-07 12:14:00,49.1,34.9,30.39,SE,125,3.5,3.5,58,0.00,CLR,,0.00,WeatherDisplay:10.37,2013-01-07 17:14:00,
2013-01-07 12:19:00,49.3,34.7,30.39,NNE,32,2.3,2.3,57,0.00,CLR,,0.00,WeatherDisplay:10.37,2013-01-07 17:19:00,
2013-01-07 12:24:00,49.5,34.9,30.39,NNW,347,3.5,3.5,57,0.00,CLR,,0.00,WeatherDisplay:10.37,2013-01-07 17:24:00,
2013-01-07 12:29:00,49.6,34.5,30.39,SSE,148,3.5,3.5,56,0.00,CLR,,0.00,WeatherDisplay:10.37,2013-01-07 17:29:00,
2013-01-07 12:34:00,49.7,34.2,30.38,North,355,6.9,6.9,55,0.00,CLR,,0.00,WeatherDisplay:10.37,2013-01-07 17:34:00,
2013-01-07 12:39:00,49.9,34.4,30.38,ESE,107,8.1,8.1,55,0.00,CLR,,0.00,WeatherDisplay:10.37,2013-01-07 17:39:00,
2013-01-07 12:44:00,50.0,34.5,30.38,North,4,4.6,4.6,55,0.00,CLR,,0.00,WeatherDisplay:10.37,2013-01-07 17:44:00,
2013-01-07 12:49:00,50.4,35.3,30.38,ESE,114,2.3,2.3,56,0.00,CLR,,0.00,WeatherDisplay:10.37,2013-01-07 17:49:00,
2013-01-07 12:54:00,50.9,34.4,30.38,NW,311,5.8,5.8,53,0.00,CLR,,0.00,WeatherDisplay:10.37,2013-01-07 17:54:00,
2013-01-07 12:59:00,51.2,35.1,30.38,North,354,3.5,3.5,54,0.00,CLR,,0.00,WeatherDisplay:10.37,2013-01-07 17:59:00,
2013-01-07 13:04:00,51.1,34.5,30.38,East,83,3.5,3.5,53,0.00,CLR,,0.00,WeatherDisplay:10.37,2013-01-07 18:04:00,
2013-01-07 13:09:00,51.2,34.6,30.38,South,181,2.3,2.3,53,0.00,CLR,,0.00,WeatherDisplay:10.37,2013-01-07 18:09:00,
2013-01-07 13:14:00,51.5,34.9,30.38,SSW,195,1.1,0.0,53,0.00,CLR,,0.00,WeatherDisplay:10.37,2013-01-07 18:14:00,
2013-01-07 13:19:00,51.9,34.3,30.38,East,81,3.5,3.5,51,0.00,CLR,,0.00,WeatherDisplay:10.37,2013-01-07 18:19:00,
2013-01-07 13:24:00,52.0,34.4,30.38,SSE,159,2.3,2.3,51,0.00,CLR,,0.00,WeatherDisplay:10.37,2013-01-07 18:24:00,
2013-01-07 13:29:00,52.4,34.8,30.38,SE,137,1.1,1.2,51,0.00,CLR,,0.00,WeatherDisplay:10.37,2013-01-07 18:29:00,
2013-01-07 13:34:00,52.4,34.3,30.38,SE,143,4.6,4.6,50,0.00,CLR,,0.00,WeatherDisplay:10.37,2013-01-07 18:34:00,
2013-01-07 13:39:00,52.4,34.3,30.38,SSE,156,2.3,2.3,50,0.00,CLR,,0.00,WeatherDisplay:10.37,2013-01-07 18:39:00,
2013-01-07 13:44:00,52.3,33.7,30.38,SW,236,2.3,2.3,49,0.00,CLR,,0.00,WeatherDisplay:10.37,2013-01-07 18:44:00,
2013-01-07 13:49:00,52.4,34.8,30.38,ESE,121,2.3,2.3,51,0.00,CLR,,0.00,WeatherDisplay:10.37,2013-01-07 18:49:00,
2013-01-07 13:54:00,52.5,33.9,30.38,SW,225,2.3,2.3,49,0.00,CLR,,0.00,WeatherDisplay:10.37,2013-01-07 18:54:00,
2013-01-07 13:59:00,52.7,34.6,30.38,SSW,195,1.1,1.1,50,0.00,CLR,,0.00,WeatherDisplay:10.37,2013-01-07 18:59:00,
2013-01-07 14:04:00,53.4,34.7,30.38,ESE,108,1.1,0.0,49,0.00,CLR,,0.00,WeatherDisplay:10.37,2013-01-07 19:04:00,
2013-01-07 14:09:00,53.8,34.0,30.38,ESE,109,2.3,2.3,47,0.00,CLR,,0.00,WeatherDisplay:10.37,2013-01-07 19:09:00,
2013-01-07 14:14:00,53.8,34.0,30.38,South,187,1.1,0.0,47,0.00,CLR,,0.00,WeatherDisplay:10.37,2013-01-07 19:14:00,
2013-01-07 14:19:00,54.1,34.3,30.38,SE,134,2.3,2.3,47,0.00,CLR,,0.00,WeatherDisplay:10.37,2013-01-07 19:19:00,
2013-01-07 14:24:00,54.6,35.3,30.38,ESE,111,2.3,0.0,48,0.00,CLR,,0.00,WeatherDisplay:10.37,2013-01-07 19:24:00,
2013-01-07 14:29:00,54.3,33.9,30.38,NNW,333,2.3,2.3,46,0.00,CLR,,0.00,WeatherDisplay:10.37,2013-01-07 19:29:00,
2013-01-07 14:34:00,53.7,33.4,30.38,SE,142,2.3,2.3,46,0.00,CLR,,0.00,WeatherDisplay:10.37,2013-01-07 19:34:00,
2013-01-07 14:39:00,53.6,33.3,30.38,SW,225,2.3,2.3,46,0.00,CLR,,0.00,WeatherDisplay:10.37,2013-01-07 19:39:00,
2013-01-07 14:44:00,54.2,34.4,30.38,NNW,332,2.3,2.3,47,0.00,CLR,,0.00,WeatherDisplay:10.37,2013-01-07 19:44:00,
2013-01-07 14:49:00,54.6,34.8,30.38,North,349,1.1,0.0,47,0.00,CLR,,0.00,WeatherDisplay:10.37,2013-01-07 19:49:00,
2013-01-07 14:54:00,53.9,33.6,30.38,NNW,332,3.5,3.5,46,0.00,CLR,,0.00,WeatherDisplay:10.37,2013-01-07 19:54:00,
2013-01-07 14:59:00,53.6,33.8,30.38,ESE,103,2.3,0.0,47,0.00,CLR,,0.00,WeatherDisplay:10.37,2013-01-07 19:59:00,
2013-01-07 15:04:00,53.5,33.7,30.38,NW,304,2.3,2.3,47,0.00,CLR,,0.00,WeatherDisplay:10.37,2013-01-07 20:04:00,
2013-01-07 15:09:00,53.8,35.1,30.39,ENE,75,1.1,1.1,49,0.00,CLR,,0.00,WeatherDisplay:10.37,2013-01-07 20:09:00,
2013-01-07 15:14:00,54.3,34.5,30.39,SE,136,2.3,0.0,47,0.00,CLR,,0.00,WeatherDisplay:10.37,2013-01-07 20:14:00,
2013-01-07 15:19:00,54.9,35.0,30.39,NW,310,1.1,0.0,47,0.00,CLR,,0.00,WeatherDisplay:10.37,2013-01-07 20:19:00,
2013-01-07 15:24:00,54.6,33.7,30.39,North,4,1.1,1.1,45,0.00,CLR,,0.00,WeatherDisplay:10.37,2013-01-07 20:24:00,
2013-01-07 15:29:00,54.3,33.9,30.39,East,98,1.1,0.0,46,0.00,CLR,,0.00,WeatherDisplay:10.37,2013-01-07 20:29:00,
2013-01-07 15:34:00,54.6,34.2,30.39,ESE,108,2.3,2.3,46,0.00,CLR,,0.00,WeatherDisplay:10.37,2013-01-07 20:34:00,
2013-01-07 15:39:00,54.6,34.2,30.39,ENE,67,1.1,1.1,46,0.00,CLR,,0.00,WeatherDisplay:10.37,2013-01-07 20:39:00,
2013-01-07 15:44:00,55.4,34.9,30.39,ENE,67,0.0,0.0,46,0.00,CLR,,0.00,WeatherDisplay:10.37,2013-01-07 20:44:00,
2013-01-07 15:49:00,55.8,34.8,30.39,East,84,1.1,1.1,45,0.00,CLR,,0.00,WeatherDisplay:10.37,2013-01-07 20:49:00,
2013-01-07 15:54:00,54.8,34.4,30.39,SE,125,3.5,3.5,46,0.00,CLR,,0.00,WeatherDisplay:10.37,2013-01-07 20:54:00,
2013-01-07 15:59:00,53.9,33.6,30.40,NNE,13,1.1,1.4,46,0.00,CLR,,0.00,WeatherDisplay:10.37,2013-01-07 20:59:00,
2013-01-07 16:04:00,53.0,33.8,30.39,NNW,337,2.3,2.3,48,0.00,CLR,,0.00,WeatherDisplay:10.37,2013-01-07 21:04:00,
2013-01-07 16:09:00,53.1,33.9,30.39,North,1,2.3,2.3,48,0.00,CLR,,0.00,WeatherDisplay:10.37,2013-01-07 21:09:00,
2013-01-07 16:14:00,52.7,34.6,30.40,East,101,1.1,0.0,50,0.00,CLR,,0.00,WeatherDisplay:10.37,2013-01-07 21:14:00,
2013-01-07 16:19:00,52.2,33.6,30.40,ENE,58,0.0,0.0,49,0.00,CLR,,0.00,WeatherDisplay:10.37,2013-01-07 21:19:00,
2013-01-07 16:24:00,51.7,33.1,30.40,ENE,58,0.0,0.1,49,0.00,CLR,,0.00,WeatherDisplay:10.37,2013-01-07 21:24:00,
2013-01-07 16:29:00,51.2,33.7,30.40,ENE,59,0.0,0.0,51,0.00,CLR,,0.00,WeatherDisplay:10.37,2013-01-07 21:29:00,
2013-01-07 16:34:00,50.8,33.8,30.40,ESE,120,1.1,0.0,52,0.00,CLR,,0.00,WeatherDisplay:10.37,2013-01-07 21:34:00,
2013-01-07 16:39:00,50.5,34.0,30.40,ESE,120,1.1,0.0,53,0.00,CLR,,0.00,WeatherDisplay:10.37,2013-01-07 21:39:00,
2013-01-07 16:44:00,50.1,33.6,30.40,ESE,120,0.0,0.0,53,0.00,CLR,,0.00,WeatherDisplay:10.37,2013-01-07 21:44:00,
2013-01-07 16:49:00,49.7,33.7,30.40,ESE,116,0.0,0.1,54,0.00,CLR,,0.00,WeatherDisplay:10.37,2013-01-07 21:49:00,
2013-01-07 16:54:00,49.2,33.7,30.41,NE,44,0.0,0.0,55,0.00,CLR,,0.00,WeatherDisplay:10.37,2013-01-07 21:54:00,
2013-01-07 16:59:00,48.7,33.7,30.41,NE,44,0.0,0.0,56,0.00,CLR,,0.00,WeatherDisplay:10.37,2013-01-07 21:59:00,
2013-01-07 17:04:00,48.2,33.7,30.41,NE,44,0.0,0.0,57,0.00,CLR,,0.00,WeatherDisplay:10.37,2013-01-07 22:04:00,
2013-01-07 17:09:00,47.6,34.0,30.41,NE,44,0.0,0.0,59,0.00,CLR,,0.00,WeatherDisplay:10.37,2013-01-07 22:09:00,
2013-01-07 17:14:00,47.0,34.2,30.41,NE,44,0.0,0.0,61,0.00,CLR,,0.00,WeatherDisplay:10.37,2013-01-07 22:14:00,
2013-01-07 17:19:00,46.3,34.4,30.41,NE,44,0.0,0.0,63,0.00,CLR,,0.00,WeatherDisplay:10.37,2013-01-07 22:19:00,
2013-01-07 17:24:00,45.7,34.2,30.41,NE,44,0.0,0.0,64,0.00,CLR,,0.00,WeatherDisplay:10.37,2013-01-07 22:24:00,
2013-01-07 17:29:00,44.9,34.2,30.41,NE,44,0.0,0.0,66,0.00,CLR,,0.00,WeatherDisplay:10.37,2013-01-07 22:29:00,
2013-01-07 17:34:00,44.1,33.8,30.41,NE,44,0.0,0.0,67,0.00,CLR,,0.00,WeatherDisplay:10.37,2013-01-07 22:34:00,
2013-01-07 17:39:00,43.3,33.8,30.41,NE,44,0.0,0.0,69,0.00,CLR,,0.00,WeatherDisplay:10.37,2013-01-07 22:39:00,
2013-01-07 17:44:00,42.6,33.5,30.41,NE,44,0.0,0.0,70,0.00,CLR,,0.00,WeatherDisplay:10.37,2013-01-07 22:44:00,
2013-01-07 17:49:00,42.0,33.6,30.41,NE,44,0.0,0.0,72,0.00,CLR,,0.00,WeatherDisplay:10.37,2013-01-07 22:49:00,
2013-01-07 17:55:00,41.6,33.9,30.41,NE,44,0.0,0.0,74,0.00,CLR,,0.00,WeatherDisplay:10.37,2013-01-07 22:55:00,
2013-01-07 18:00:00,41.2,33.9,30.41,NE,43,0.0,0.0,75,0.00,CLR,,0.00,WeatherDisplay:10.37,2013-01-07 23:00:00,
2013-01-07 18:05:00,40.8,33.8,30.41,NE,43,0.0,0.0,76,0.00,CLR,,0.00,WeatherDisplay:10.37,2013-01-07 23:05:00,
2013-01-07 18:10:00,40.3,33.7,30.41,NE,43,0.0,0.0,77,0.00,CLR,,0.00,WeatherDisplay:10.37,2013-01-07 23:10:00,
2013-01-07 18:15:00,39.8,33.5,30.41,NE,43,0.0,0.0,78,0.00,CLR,,0.00,WeatherDisplay:10.37,2013-01-07 23:15:00,
2013-01-07 18:20:00,39.2,33.2,30.41,NE,43,0.0,0.0,79,0.00,CLR,,0.00,WeatherDisplay:10.37,2013-01-07 23:20:00,
2013-01-07 18:25:00,39.0,33.4,30.42,NE,43,0.0,0.0,80,0.00,CLR,,0.00,WeatherDisplay:10.37,2013-01-07 23:25:00,
2013-01-07 18:30:00,38.6,33.3,30.42,NE,43,0.0,0.0,81,0.00,CLR,,0.00,WeatherDisplay:10.37,2013-01-07 23:30:00,
2013-01-07 18:35:00,38.3,33.3,30.42,NE,43,0.0,0.0,82,0.00,CLR,,0.00,WeatherDisplay:10.37,2013-01-07 23:35:00,
2013-01-07 18:40:00,38.1,33.4,30.42,NE,43,0.0,0.0,83,0.00,CLR,,0.00,WeatherDisplay:10.37,2013-01-07 23:40:00,
2013-01-07 18:45:00,37.9,33.2,30.42,NE,43,0.0,0.0,83,0.00,CLR,,0.00,WeatherDisplay:10.37,2013-01-07 23:45:00,
2013-01-07 18:50:00,37.6,32.9,30.42,NE,43,0.0,0.0,83,0.00,CLR,,0.00,WeatherDisplay:10.37,2013-01-07 23:50:00,
2013-01-07 18:55:00,37.4,33.0,30.42,NE,43,0.0,0.0,84,0.00,CLR,,0.00,WeatherDisplay:10.37,2013-01-07 23:55:00,
2013-01-07 19:00:00,37.2,33.1,30.43,NE,43,0.0,0.0,85,0.00,CLR,,0.00,WeatherDisplay:10.37,2013-01-08 00:00:00,
2013-01-07 19:05:00,36.8,32.4,30.43,NE,43,0.0,0.0,84,0.00,CLR,,0.00,WeatherDisplay:10.37,2013-01-08 00:05:00,
2013-01-07 19:10:00,36.5,32.4,30.43,NE,43,0.0,0.0,85,0.00,CLR,,0.00,WeatherDisplay:10.37,2013-01-08 00:10:00,
2013-01-07 19:15:00,36.2,32.4,30.43,NE,43,0.0,0.0,86,0.00,CLR,,0.00,WeatherDisplay:10.37,2013-01-08 00:15:00,
2013-01-07 19:20:00,36.1,32.6,30.43,NE,43,0.0,0.0,87,0.00,CLR,,0.00,WeatherDisplay:10.37,2013-01-08 00:20:00,
2013-01-07 19:25:00,35.9,32.4,30.43,NE,43,0.0,0.0,87,0.00,CLR,,0.00,WeatherDisplay:10.37,2013-01-08 00:25:00,
2013-01-07 19:30:00,35.7,32.2,30.43,NE,43,0.0,0.0,87,0.00,CLR,,0.00,WeatherDisplay:10.37,2013-01-08 00:30:00,
2013-01-07 19:35:00,35.5,32.0,30.43,NE,43,0.0,0.0,87,0.00,CLR,,0.00,WeatherDisplay:10.37,2013-01-08 00:35:00,
2013-01-07 19:40:00,35.3,31.8,30.43,NE,43,0.0,0.0,87,0.00,CLR,,0.00,WeatherDisplay:10.37,2013-01-08 00:40:00,
2013-01-07 19:45:00,35.0,31.8,30.43,NE,43,0.0,0.0,88,0.00,CLR,,0.00,WeatherDisplay:10.37,2013-01-08 00:45:00,
2013-01-07 19:50:00,34.9,32.0,30.43,NE,43,0.0,0.0,89,0.00,CLR,,0.00,WeatherDisplay:10.37,2013-01-08 00:50:00,
2013-01-07 19:55:00,34.8,31.9,30.43,NE,43,0.0,0.0,89,0.00,CLR,,0.00,WeatherDisplay:10.37,2013-01-08 00:55:00,
2013-01-07 20:00:00,34.6,31.7,30.43,NE,43,0.0,0.0,89,0.00,CLR,,0.00,WeatherDisplay:10.37,2013-01-08 01:00:00,
2013-01-07 20:05:00,34.4,31.5,30.43,NE,43,0.0,0.0,89,0.00,CLR,,0.00,WeatherDisplay:10.37,2013-01-08 01:05:00,
2013-01-07 20:10:00,34.3,31.7,30.43,NE,43,0.0,0.0,90,0.00,CLR,,0.00,WeatherDisplay:10.37,2013-01-08 01:10:00,
2013-01-07 20:15:00,34.1,31.5,30.43,NE,43,0.0,0.0,90,0.00,CLR,,0.00,WeatherDisplay:10.37,2013-01-08 01:15:00,
2013-01-07 20:20:00,33.9,31.3,30.44,NE,43,0.0,0.0,90,0.00,CLR,,0.00,WeatherDisplay:10.37,2013-01-08 01:20:00,
2013-01-07 20:25:00,33.8,31.2,30.44,NE,43,0.0,0.0,90,0.00,CLR,,0.00,WeatherDisplay:10.37,2013-01-08 01:25:00,
2013-01-07 20:30:00,33.5,30.9,30.44,NE,44,0.0,0.0,90,0.00,CLR,,0.00,WeatherDisplay:10.37,2013-01-08 01:30:00,
2013-01-07 20:35:00,33.3,31.0,30.44,NE,44,0.0,0.0,91,0.00,CLR,,0.00,WeatherDisplay:10.37,2013-01-08 01:35:00,
2013-01-07 20:40:00,33.1,30.8,30.44,NE,43,0.0,0.0,91,0.00,CLR,,0.00,WeatherDisplay:10.37,2013-01-08 01:40:00,
2013-01-07 20:45:00,33.0,30.9,30.44,NE,44,0.0,0.0,92,0.00,CLR,,0.00,WeatherDisplay:10.37,2013-01-08 01:45:00,
2013-01-07 20:50:00,32.7,30.4,30.44,NE,44,0.0,0.0,91,0.00,CLR,,0.00,WeatherDisplay:10.37,2013-01-08 01:50:00,
2013-01-07 20:55:00,32.5,30.2,30.44,NE,44,0.0,0.0,91,0.00,CLR,,0.00,WeatherDisplay:10.37,2013-01-08 01:55:00,
2013-01-07 21:00:00,32.5,30.4,30.44,NE,44,0.0,0.0,92,0.00,CLR,,0.00,WeatherDisplay:10.37,2013-01-08 02:00:00,
2013-01-07 21:05:00,32.5,30.4,30.44,NE,44,0.0,0.0,92,0.00,CLR,,0.00,WeatherDisplay:10.37,2013-01-08 02:05:00,
2013-01-07 21:10:00,32.2,30.1,30.44,NE,44,0.0,0.0,92,0.00,CLR,,0.00,WeatherDisplay:10.37,2013-01-08 02:10:00,
2013-01-07 21:15:00,32.0,29.9,30.44,NE,44,0.0,0.0,92,0.00,CLR,,0.00,WeatherDisplay:10.37,2013-01-08 02:15:00,
2013-01-07 21:20:00,31.9,30.1,30.43,NE,44,0.0,0.0,93,0.00,CLR,,0.00,WeatherDisplay:10.37,2013-01-08 02:20:00,
2013-01-07 21:25:00,31.7,29.9,30.43,NE,44,0.0,0.0,93,0.00,CLR,,0.00,WeatherDisplay:10.37,2013-01-08 02:25:00,
2013-01-07 21:30:00,31.4,29.6,30.43,NE,44,0.0,0.0,93,0.00,CLR,,0.00,WeatherDisplay:10.37,2013-01-08 02:30:00,
2013-01-07 21:35:00,31.4,29.6,30.44,NE,44,0.0,0.0,93,0.00,CLR,,0.00,WeatherDisplay:10.37,2013-01-08 02:35:00,
2013-01-07 21:40:00,31.3,29.8,30.44,NE,44,0.0,0.0,94,0.00,CLR,,0.00,WeatherDisplay:10.37,2013-01-08 02:40:00,
2013-01-07 21:45:00,31.3,29.8,30.43,NE,44,0.0,0.0,94,0.00,CLR,,0.00,WeatherDisplay:10.37,2013-01-08 02:45:00,
2013-01-07 21:50:00,31.3,29.8,30.43,NE,44,0.0,0.0,94,0.00,CLR,,0.00,WeatherDisplay:10.37,2013-01-08 02:50:00,
2013-01-07 21:55:00,31.1,29.6,30.44,NE,44,0.0,0.0,94,0.00,CLR,,0.00,WeatherDisplay:10.37,2013-01-08 02:55:00,
2013-01-07 22:00:00,31.0,29.5,30.44,NE,44,0.0,0.0,94,0.00,CLR,,0.00,WeatherDisplay:10.37,2013-01-08 03:00:00,
2013-01-07 22:05:00,31.0,29.5,30.44,NE,44,0.0,0.0,94,0.00,CLR,,0.00,WeatherDisplay:10.37,2013-01-08 03:05:00,
2013-01-07 22:10:00,30.8,29.3,30.44,NE,44,0.0,0.0,94,0.00,CLR,,0.00,WeatherDisplay:10.37,2013-01-08 03:10:00,
2013-01-07 22:15:00,30.6,29.1,30.44,NE,44,0.0,0.0,94,0.00,CLR,,0.00,WeatherDisplay:10.37,2013-01-08 03:15:00,
2013-01-07 22:20:00,30.2,28.7,30.44,NE,44,0.0,0.0,94,0.00,CLR,,0.00,WeatherDisplay:10.37,2013-01-08 03:20:00,
2013-01-07 22:25:00,30.1,28.6,30.44,NE,44,0.0,0.0,94,0.00,CLR,,0.00,WeatherDisplay:10.37,2013-01-08 03:25:00,
2013-01-07 22:30:00,30.1,28.8,30.44,NE,44,0.0,0.0,95,0.00,CLR,,0.00,WeatherDisplay:10.37,2013-01-08 03:30:00,
2013-01-07 22:35:00,30.1,28.8,30.43,NE,44,0.0,0.0,95,0.00,CLR,,0.00,WeatherDisplay:10.37,2013-01-08 03:35:00,
2013-01-07 22:40:00,30.0,28.5,30.43,NE,44,0.0,0.0,94,0.00,CLR,,0.00,WeatherDisplay:10.37,2013-01-08 03:40:00,
2013-01-07 22:46:00,30.1,28.8,30.43,NE,44,0.0,0.0,95,0.00,CLR,,0.00,WeatherDisplay:10.37,2013-01-08 03:46:00,
2013-01-07 22:51:00,30.2,28.9,30.43,NE,44,0.0,0.0,95,0.00,CLR,,0.00,WeatherDisplay:10.37,2013-01-08 03:51:00,
2013-01-07 22:56:00,30.0,28.7,30.43,NE,44,0.0,0.0,95,0.00,CLR,,0.00,WeatherDisplay:10.37,2013-01-08 03:56:00,
2013-01-07 23:01:00,30.1,28.8,30.43,NE,44,0.0,0.0,95,0.00,CLR,,0.00,WeatherDisplay:10.37,2013-01-08 04:01:00,
2013-01-07 23:06:00,30.0,28.7,30.43,NE,44,0.0,0.0,95,0.00,CLR,,0.00,WeatherDisplay:10.37,2013-01-08 04:06:00,
2013-01-07 23:11:00,29.8,28.5,30.43,NE,44,0.0,0.0,95,0.00,CLR,,0.00,WeatherDisplay:10.37,2013-01-08 04:11:00,
2013-01-07 23:16:00,29.7,28.4,30.43,NE,44,0.0,0.0,95,0.00,CLR,,0.00,WeatherDisplay:10.37,2013-01-08 04:16:00,
2013-01-07 23:21:00,29.7,28.4,30.42,NE,44,0.0,0.0,95,0.00,CLR,,0.00,WeatherDisplay:10.37,2013-01-08 04:21:00,
2013-01-07 23:26:00,29.6,28.3,30.42,NE,44,0.0,0.0,95,0.00,CLR,,0.00,WeatherDisplay:10.37,2013-01-08 04:26:00,
2013-01-07 23:31:00,29.4,28.1,30.42,NE,44,0.0,0.0,95,0.00,CLR,,0.00,WeatherDisplay:10.37,2013-01-08 04:31:00,
2013-01-07 23:36:00,29.3,28.0,30.42,NE,44,1.1,0.0,95,0.00,CLR,,0.00,WeatherDisplay:10.37,2013-01-08 04:36:00,
2013-01-07 23:41:00,29.5,28.2,30.43,NE,44,0.0,0.0,95,0.00,CLR,,0.00,WeatherDisplay:10.37,2013-01-08 04:41:00,
2013-01-07 23:46:00,29.6,28.6,30.43,NE,44,0.0,0.0,96,0.00,CLR,,0.00,WeatherDisplay:10.37,2013-01-08 04:46:00,
2013-01-07 23:51:00,29.7,28.7,30.43,NE,44,0.0,0.0,96,0.00,CLR,,0.00,WeatherDisplay:10.37,2013-01-08 04:51:00,
2013-01-07 23:56:00,29.5,28.5,30.42,NE,44,0.0,0.0,96,0.00,CLR,,0.00,WeatherDisplay:10.37,2013-01-08 04:56:00,